Time;durP1;ratioP1;P1;durP2;ratioP2;P2;SDS_P1;SDS_P2;PMS_P1;PMS_P2;Temp;Humidity;BMP_temperature;BMP_pressure;BME280_temperature;BME280_humidity;BME280_pressure;Samples;Min_cycle;Max_cycle;Signal;HPM_P1;HPM_P2
2021/11/14 00:00:46;;;;;;;24.20;17.65;;;9.60;99.90;;;;;;5050021;28;20300;-75
2021/11/14 00:03:14;;;;;;;22.08;16.40;;;9.60;99.90;;;;;;5053122;28;20666;-75
2021/11/14 00:05:43;;;;;;;26.33;16.52;;;9.60;99.90;;;;;;5055145;28;20211;-75
2021/11/14 00:08:11;;;;;;;21.50;16.73;;;9.50;99.90;;;;;;5052169;28;20261;-76
2021/11/14 00:10:40;;;;;;;22.30;17.40;;;9.60;99.90;;;;;;5034304;28;20221;-76
2021/11/14 00:13:08;;;;;;;19.15;15.00;;;9.60;99.90;;;;;;5045499;28;20205;-76
2021/11/14 00:15:35;;;;;;;19.20;15.10;;;9.60;99.90;;;;;;5053537;28;20215;-75
2021/11/14 00:18:02;;;;;;;23.13;16.85;;;9.60;99.90;;;;;;5041150;28;20219;-73
2021/11/14 00:20:29;;;;;;;21.95;15.85;;;9.50;99.90;;;;;;5032071;28;20457;-75
2021/11/14 00:22:56;;;;;;;22.67;15.70;;;9.50;99.90;;;;;;5042537;28;20380;-76
2021/11/14 00:25:23;;;;;;;24.25;15.95;;;9.60;99.90;;;;;;5053013;28;20257;-75
2021/11/14 00:27:51;;;;;;;21.02;15.77;;;9.60;99.90;;;;;;5055868;28;20194;-76
2021/11/14 00:30:21;;;;;;;26.40;16.77;;;9.60;99.90;;;;;;5055790;28;20206;-74
2021/11/14 00:32:50;;;;;;;20.58;15.38;;;9.50;99.90;;;;;;5050957;28;20199;-74
2021/11/14 00:35:18;;;;;;;21.90;15.00;;;9.50;99.90;;;;;;5053475;28;20670;-74
2021/11/14 00:37:45;;;;;;;17.98;14.02;;;9.50;99.90;;;;;;5048418;28;20200;-74
2021/11/14 00:40:16;;;;;;;22.20;15.30;;;9.50;99.90;;;;;;5038194;28;20214;-76
2021/11/14 00:42:42;;;;;;;19.13;14.35;;;9.60;99.90;;;;;;5042554;28;20215;-74
2021/11/14 00:45:10;;;;;;;19.10;14.23;;;9.60;99.90;;;;;;5056823;28;20241;-75
2021/11/14 00:47:39;;;;;;;20.38;13.68;;;9.60;99.90;;;;;;5051330;28;20686;-75
2021/11/14 00:50:10;;;;;;;19.85;14.57;;;9.60;99.90;;;;;;5033533;28;20215;-74
2021/11/14 00:52:37;;;;;;;18.98;14.57;;;9.60;99.90;;;;;;5034153;28;20253;-74
2021/11/14 00:55:05;;;;;;;18.15;14.30;;;9.60;99.90;;;;;;5033616;28;20207;-74
2021/11/14 00:57:32;;;;;;;22.00;16.08;;;9.60;99.90;;;;;;5036856;28;20198;-74
2021/11/14 00:59:59;;;;;;;16.23;13.30;;;9.70;99.90;;;;;;5056351;28;20220;-74
2021/11/14 01:02:26;;;;;;;18.30;14.40;;;9.60;99.90;;;;;;5055011;28;20231;-75
2021/11/14 01:04:54;;;;;;;19.00;13.20;;;9.60;99.90;;;;;;5056996;28;20273;-76
2021/11/14 01:07:21;;;;;;;21.60;13.82;;;9.60;99.90;;;;;;5054872;28;20293;-74
2021/11/14 01:09:48;;;;;;;19.85;14.45;;;9.60;99.90;;;;;;5033887;28;20226;-74
2021/11/14 01:12:15;;;;;;;20.02;14.80;;;9.60;99.90;;;;;;5034780;28;20207;-74
2021/11/14 01:14:42;;;;;;;19.95;14.05;;;9.60;99.90;;;;;;5051841;28;20205;-74
2021/11/14 01:17:09;;;;;;;19.55;15.65;;;9.60;99.90;;;;;;5054257;28;20214;-74
2021/11/14 01:19:36;;;;;;;20.17;14.65;;;9.60;99.90;;;;;;5035028;28;20227;-74
2021/11/14 01:22:05;;;;;;;20.83;14.30;;;9.60;99.90;;;;;;5034612;28;20207;-74
2021/11/14 01:24:32;;;;;;;23.65;16.17;;;9.60;99.90;;;;;;5050873;28;20209;-75
2021/11/14 01:26:59;;;;;;;20.73;14.85;;;9.70;99.90;;;;;;5041379;28;20649;-75
2021/11/14 01:29:25;;;;;;;20.65;16.10;;;9.60;99.90;;;;;;5034242;28;20343;-74
2021/11/14 01:31:52;;;;;;;22.10;14.75;;;9.60;99.90;;;;;;5045291;28;20206;-74
2021/11/14 01:34:19;;;;;;;22.83;14.23;;;9.70;99.90;;;;;;5052980;28;20674;-75
2021/11/14 01:36:46;;;;;;;20.30;15.55;;;9.70;99.90;;;;;;5055134;28;20206;-75
2021/11/14 01:39:14;;;;;;;17.73;12.68;;;9.70;99.90;;;;;;5043798;28;20309;-75
2021/11/14 01:41:41;;;;;;;21.95;14.30;;;9.70;99.90;;;;;;5062569;28;20249;-76
2021/11/14 01:44:09;;;;;;;18.45;13.63;;;9.70;99.90;;;;;;5049487;28;20230;-76
2021/11/14 01:46:36;;;;;;;23.67;14.80;;;9.60;99.90;;;;;;5047345;28;20280;-76
2021/11/14 01:49:04;;;;;;;19.17;13.88;;;9.60;99.90;;;;;;5063252;28;20231;-75
2021/11/14 01:51:31;;;;;;;16.80;13.30;;;9.60;99.90;;;;;;5067567;28;20226;-74
2021/11/14 01:53:58;;;;;;;19.85;13.98;;;9.60;99.90;;;;;;5050404;28;20203;-75
2021/11/14 01:56:27;;;;;;;16.17;12.02;;;9.60;99.90;;;;;;5041224;28;20234;-75
2021/11/14 01:58:54;;;;;;;18.38;12.95;;;9.60;99.90;;;;;;5044280;28;20294;-76
2021/11/14 02:01:25;;;;;;;17.63;13.73;;;9.70;99.90;;;;;;5039681;28;20203;-75
2021/11/14 02:03:55;;;;;;;19.27;13.88;;;9.70;99.90;;;;;;5034486;28;20310;-75
2021/11/14 02:06:24;;;;;;;17.23;13.23;;;9.60;99.90;;;;;;5046229;28;20607;-75
2021/11/14 02:08:52;;;;;;;21.55;15.65;;;9.70;99.90;;;;;;5042425;28;20227;-75
2021/11/14 02:11:20;;;;;;;19.33;14.07;;;9.60;99.90;;;;;;5036143;28;20261;-75
2021/11/14 02:13:50;;;;;;;18.67;14.05;;;9.60;99.90;;;;;;5041476;28;20195;-75
2021/11/14 02:16:22;;;;;;;21.02;15.43;;;9.60;99.90;;;;;;5052866;28;20204;-76
2021/11/14 02:18:49;;;;;;;20.45;15.38;;;9.60;99.90;;;;;;5046016;28;20303;-75
2021/11/14 02:21:17;;;;;;;17.35;13.10;;;9.60;99.90;;;;;;5044352;28;20224;-74
2021/11/14 02:23:44;;;;;;;17.13;13.88;;;9.60;99.90;;;;;;5047091;28;20682;-74
2021/11/14 02:26:12;;;;;;;18.83;14.60;;;9.60;99.90;;;;;;5046127;28;20231;-74
2021/11/14 02:28:39;;;;;;;16.60;11.55;;;9.60;99.90;;;;;;5037973;28;20748;-75
2021/11/14 02:31:11;;;;;;;17.42;13.23;;;9.60;99.90;;;;;;5037133;28;20207;-74
2021/11/14 02:33:38;;;;;;;15.90;12.50;;;9.70;99.90;;;;;;5057002;28;20213;-76
2021/11/14 02:36:08;;;;;;;15.30;12.70;;;9.70;99.90;;;;;;5057928;28;20646;-75
2021/11/14 02:38:37;;;;;;;16.60;12.75;;;9.70;99.90;;;;;;5045626;28;20246;-74
2021/11/14 02:41:32;;;;;;;17.52;13.40;;;9.70;99.90;;;;;;5043980;28;20213;-75
2021/11/14 02:43:59;;;;;;;16.27;12.90;;;9.70;99.90;;;;;;5039510;28;20315;-73
2021/11/14 02:46:41;;;;;;;17.77;13.15;;;9.70;99.90;;;;;;5045961;28;20271;-74
2021/11/14 02:49:23;;;;;;;16.75;12.85;;;9.60;99.90;;;;;;5060238;28;20241;-74
2021/11/14 02:51:50;;;;;;;15.23;11.70;;;9.50;99.90;;;;;;5053584;28;20203;-75
2021/11/14 02:54:19;;;;;;;17.00;12.40;;;9.60;99.90;;;;;;5040319;28;20203;-75
2021/11/14 02:56:45;;;;;;;16.05;12.85;;;9.50;99.90;;;;;;5040710;28;20198;-75
2021/11/14 02:59:12;;;;;;;16.90;12.77;;;9.50;99.90;;;;;;5039473;28;20281;-74
2021/11/14 03:01:44;;;;;;;17.25;12.80;;;9.40;99.90;;;;;;5043245;28;20276;-74
2021/11/14 03:04:11;;;;;;;17.90;13.45;;;9.50;99.90;;;;;;5060506;28;20262;-74
2021/11/14 03:06:38;;;;;;;18.48;14.95;;;9.30;99.90;;;;;;5063198;28;20203;-74
2021/11/14 03:09:06;;;;;;;16.50;12.98;;;9.30;99.90;;;;;;5034790;28;20231;-74
2021/11/14 03:11:35;;;;;;;19.42;15.05;;;9.20;99.90;;;;;;5034189;28;20203;-74
2021/11/14 03:14:02;;;;;;;16.27;13.90;;;9.20;99.90;;;;;;5014320;28;20204;-74
2021/11/14 03:16:29;;;;;;;15.38;13.35;;;9.30;99.90;;;;;;5020484;28;20222;-75
2021/11/14 03:18:57;;;;;;;17.25;13.13;;;9.30;99.90;;;;;;5025806;28;20224;-74
2021/11/14 03:21:25;;;;;;;15.60;13.13;;;9.30;99.90;;;;;;5018397;28;20294;-75
2021/11/14 03:23:54;;;;;;;15.02;12.80;;;9.30;99.90;;;;;;5034494;28;20311;-74
2021/11/14 03:26:21;;;;;;;16.00;13.20;;;9.30;99.90;;;;;;5034262;28;20215;-74
2021/11/14 03:28:49;;;;;;;15.35;13.60;;;9.40;99.90;;;;;;5035116;28;20345;-74
2021/11/14 03:31:16;;;;;;;15.63;12.82;;;9.30;99.90;;;;;;5054207;28;20202;-74
2021/11/14 03:33:44;;;;;;;17.42;14.23;;;9.20;99.90;;;;;;5053109;28;20286;-74
2021/11/14 03:36:13;;;;;;;14.65;12.93;;;9.30;99.90;;;;;;5051777;28;20275;-74
2021/11/14 03:38:44;;;;;;;15.75;13.50;;;9.30;99.90;;;;;;5051623;28;20265;-74
2021/11/14 03:41:16;;;;;;;15.40;13.23;;;9.30;99.90;;;;;;5052039;28;20679;-74
2021/11/14 03:43:43;;;;;;;15.20;13.60;;;9.30;99.90;;;;;;5055198;28;20298;-75
2021/11/14 03:46:12;;;;;;;18.40;14.10;;;9.30;99.90;;;;;;5055003;28;20195;-77
2021/11/14 03:48:46;;;;;;;14.50;13.10;;;9.20;99.90;;;;;;5054705;28;20244;-76
2021/11/14 03:51:14;;;;;;;16.27;13.85;;;9.30;99.90;;;;;;5071497;28;20190;-75
2021/11/14 03:53:41;;;;;;;15.38;13.77;;;9.30;99.90;;;;;;5055657;28;20674;-75
2021/11/14 03:56:09;;;;;;;17.60;13.75;;;9.30;99.90;;;;;;5051799;28;20233;-75
2021/11/14 03:58:37;;;;;;;16.60;13.82;;;9.40;99.90;;;;;;5051450;28;20848;-75
2021/11/14 04:01:07;;;;;;;19.50;14.75;;;9.30;99.90;;;;;;5050833;28;20284;-76
2021/11/14 04:03:36;;;;;;;17.85;15.13;;;9.20;99.90;;;;;;5051042;28;20214;-75
2021/11/14 04:06:04;;;;;;;19.10;16.25;;;9.10;99.90;;;;;;5035524;28;20231;-74
2021/11/14 04:08:32;;;;;;;16.42;14.20;;;9.10;99.90;;;;;;5042623;28;20289;-74
2021/11/14 04:11:00;;;;;;;20.33;16.27;;;9.20;99.90;;;;;;5054300;28;20209;-74
2021/11/14 04:13:30;;;;;;;20.83;16.85;;;9.20;99.90;;;;;;5052539;28;20270;-74
2021/11/14 04:15:58;;;;;;;19.35;17.08;;;9.10;99.90;;;;;;5050860;28;20225;-73
2021/11/14 04:18:25;;;;;;;18.75;15.70;;;9.10;99.90;;;;;;5054573;28;20253;-74
2021/11/14 04:20:53;;;;;;;20.00;15.80;;;9.10;99.90;;;;;;5051744;28;20289;-75
2021/11/14 04:23:21;;;;;;;17.80;15.90;;;9.10;99.90;;;;;;5053704;28;20241;-75
2021/11/14 04:25:49;;;;;;;19.95;16.80;;;9.00;99.90;;;;;;5069527;28;20241;-74
2021/11/14 04:28:16;;;;;;;19.60;16.63;;;9.00;99.90;;;;;;5061939;28;20222;-75
2021/11/14 04:30:45;;;;;;;19.48;17.48;;;9.00;99.90;;;;;;5051746;28;20238;-74
2021/11/14 04:33:12;;;;;;;20.50;17.63;;;8.90;99.90;;;;;;5054627;28;20254;-74
2021/11/14 04:35:39;;;;;;;23.23;17.80;;;8.90;99.90;;;;;;5056575;28;20217;-75
2021/11/14 04:38:08;;;;;;;20.52;18.13;;;8.80;99.90;;;;;;5056119;28;20233;-75
2021/11/14 04:40:37;;;;;;;21.05;18.55;;;8.80;99.90;;;;;;5054588;28;20241;-76
2021/11/14 04:43:05;;;;;;;23.58;19.77;;;8.80;99.90;;;;;;5049967;28;20218;-75
2021/11/14 04:45:32;;;;;;;21.40;17.90;;;8.80;99.90;;;;;;5041960;28;20407;-75
2021/11/14 04:47:59;;;;;;;22.02;19.60;;;8.80;99.90;;;;;;5041995;28;20230;-75
2021/11/14 04:50:27;;;;;;;24.08;18.98;;;8.80;99.90;;;;;;5066735;28;20306;-73
2021/11/14 04:52:54;;;;;;;24.23;19.00;;;8.80;99.90;;;;;;5068489;28;20212;-74
2021/11/14 04:55:23;;;;;;;24.80;18.75;;;8.80;99.90;;;;;;5038334;28;20207;-74
2021/11/14 04:57:51;;;;;;;22.70;18.90;;;8.80;99.90;;;;;;5051844;28;20207;-74
2021/11/14 05:00:22;;;;;;;24.73;18.42;;;8.80;99.90;;;;;;5075726;28;20203;-74
2021/11/14 05:02:49;;;;;;;21.77;19.20;;;8.80;99.90;;;;;;5075307;28;20269;-75
2021/11/14 05:05:16;;;;;;;22.50;18.85;;;8.80;99.90;;;;;;5075943;28;20306;-76
2021/11/14 05:07:43;;;;;;;25.42;20.73;;;8.80;99.90;;;;;;5065943;28;20599;-74
2021/11/14 05:10:10;;;;;;;25.83;18.80;;;8.90;99.90;;;;;;5055103;28;20194;-74
2021/11/14 05:12:40;;;;;;;24.08;19.83;;;8.80;99.90;;;;;;5038328;28;20640;-73
2021/11/14 05:15:08;;;;;;;27.48;21.40;;;8.80;99.90;;;;;;5034250;28;20203;-75
2021/11/14 05:17:35;;;;;;;26.90;22.17;;;8.70;99.90;;;;;;5033774;28;20269;-75
2021/11/14 05:20:02;;;;;;;27.05;21.20;;;8.70;99.90;;;;;;5033611;28;20246;-76
2021/11/14 05:22:29;;;;;;;27.20;21.50;;;8.70;99.90;;;;;;5047895;28;20694;-75
2021/11/14 05:24:56;;;;;;;26.17;21.45;;;8.70;99.90;;;;;;5053737;28;20226;-75
2021/11/14 05:27:23;;;;;;;29.85;22.40;;;8.70;99.90;;;;;;5054001;28;20229;-74
2021/11/14 05:29:51;;;;;;;25.52;20.67;;;8.70;99.90;;;;;;5053385;28;20927;-74
2021/11/14 05:32:18;;;;;;;28.02;22.27;;;8.70;99.90;;;;;;5053613;28;20297;-74
2021/11/14 05:34:45;;;;;;;28.13;22.50;;;8.70;99.90;;;;;;5053617;28;20294;-74
2021/11/14 05:37:12;;;;;;;24.88;21.90;;;8.70;99.90;;;;;;5053556;28;20305;-74
2021/11/14 05:39:39;;;;;;;31.73;24.00;;;8.60;99.90;;;;;;5053026;28;20227;-75
2021/11/14 05:42:06;;;;;;;27.80;22.27;;;8.70;99.90;;;;;;5053473;28;20207;-75
2021/11/14 05:44:33;;;;;;;29.95;23.75;;;8.60;99.90;;;;;;5052414;28;20221;-74
2021/11/14 05:47:01;;;;;;;31.10;22.85;;;8.60;99.90;;;;;;5053645;28;20520;-75
2021/11/14 05:49:28;;;;;;;28.48;22.85;;;8.60;99.90;;;;;;5039662;28;20227;-75
2021/11/14 05:51:55;;;;;;;26.80;20.73;;;8.60;99.90;;;;;;5034928;28;20203;-73
2021/11/14 05:54:22;;;;;;;28.17;22.73;;;8.70;99.90;;;;;;5035384;28;20227;-74
2021/11/14 05:56:49;;;;;;;30.05;22.83;;;8.70;99.90;;;;;;5035216;28;20246;-73
2021/11/14 05:59:23;;;;;;;31.48;23.95;;;8.60;99.90;;;;;;5046514;28;20246;-74
2021/11/14 06:01:55;;;;;;;31.15;25.00;;;8.70;99.90;;;;;;5062325;28;20184;-73
2021/11/14 06:04:28;;;;;;;35.58;24.92;;;8.60;99.90;;;;;;5046941;28;20233;-73
2021/11/14 06:06:54;;;;;;;31.23;24.42;;;8.60;99.90;;;;;;5042743;28;20205;-73
2021/11/14 08:36:59;;;;;;;29.83;21.88;;;9.40;99.90;;;;;;4991328;28;20248;-78
2021/11/14 08:42:29;;;;;;;29.33;20.42;;;9.40;99.90;;;;;;5008578;28;20184;-78
2021/11/14 08:44:56;;;;;;;29.35;21.98;;;9.40;99.90;;;;;;5022420;28;20228;-79
2021/11/14 08:49:52;;;;;;;36.85;22.60;;;9.30;99.90;;;;;;5020924;28;20273;-75
2021/11/14 08:52:20;;;;;;;37.00;24.35;;;9.30;99.90;;;;;;5029608;28;20203;-74
2021/11/14 08:54:47;;;;;;;31.92;21.85;;;9.30;99.90;;;;;;5031669;28;20609;-75
2021/11/14 08:57:17;;;;;;;33.55;23.20;;;9.30;99.90;;;;;;5035871;28;20207;-75
2021/11/14 08:59:45;;;;;;;33.22;24.15;;;9.20;99.90;;;;;;5003688;28;20303;-76
2021/11/14 09:02:12;;;;;;;33.47;23.10;;;9.20;99.90;;;;;;5007192;28;20208;-77
2021/11/14 09:04:39;;;;;;;36.80;22.50;;;9.20;99.90;;;;;;5013501;28;20264;-75
2021/11/14 09:07:07;;;;;;;36.75;22.35;;;9.30;99.90;;;;;;5020303;28;20208;-76
2021/11/14 09:09:37;;;;;;;34.95;22.65;;;9.30;99.90;;;;;;5004826;28;20287;-76
2021/11/14 09:12:04;;;;;;;33.97;23.60;;;9.30;99.90;;;;;;5000614;28;20250;-76
2021/11/14 09:14:32;;;;;;;32.28;21.38;;;9.30;99.90;;;;;;5003549;28;20197;-76
2021/11/14 09:16:59;;;;;;;27.45;20.58;;;9.30;99.90;;;;;;5024542;28;20204;-75
2021/11/14 09:19:26;;;;;;;31.60;21.25;;;9.40;99.90;;;;;;5011749;28;20229;-76
2021/11/14 09:21:54;;;;;;;30.88;21.13;;;9.60;99.90;;;;;;5007057;28;20235;-76
2021/11/14 09:24:21;;;;;;;30.27;20.33;;;9.70;99.90;;;;;;5000583;28;20232;-76
2021/11/14 09:26:51;;;;;;;26.17;18.98;;;9.60;99.90;;;;;;4987614;28;20205;-75
2021/11/14 09:29:18;;;;;;;28.60;20.45;;;9.90;99.90;;;;;;4992369;28;20240;-78
2021/11/14 09:31:45;;;;;;;25.52;19.27;;;9.80;99.90;;;;;;5009473;28;20212;-76
2021/11/14 09:34:12;;;;;;;25.45;18.88;;;9.90;99.90;;;;;;5004778;28;20208;-78
2021/11/14 09:36:39;;;;;;;26.50;18.38;;;10.00;99.90;;;;;;4992063;28;20200;-76
2021/11/14 09:39:09;;;;;;;27.00;18.40;;;10.10;99.90;;;;;;5007852;28;20259;-77
2021/11/14 09:41:39;;;;;;;21.83;17.05;;;10.00;99.90;;;;;;5007008;28;20274;-76
2021/11/14 09:44:10;;;;;;;26.58;19.92;;;9.90;99.90;;;;;;5007312;28;20240;-76
2021/11/14 09:46:38;;;;;;;28.58;20.33;;;9.90;99.90;;;;;;5006404;28;20201;-76
2021/11/14 09:49:07;;;;;;;28.08;19.23;;;10.00;99.90;;;;;;5009779;28;20287;-76
2021/11/14 09:51:34;;;;;;;25.33;18.95;;;10.00;99.90;;;;;;5009285;28;20251;-77
2021/11/14 09:54:01;;;;;;;27.80;20.48;;;10.10;99.90;;;;;;5007949;28;20268;-77
2021/11/14 09:56:28;;;;;;;25.77;18.85;;;9.90;99.90;;;;;;5005651;28;20215;-77
2021/11/14 09:58:55;;;;;;;28.30;20.05;;;10.00;99.90;;;;;;4990714;28;20237;-78
2021/11/14 10:01:24;;;;;;;24.60;18.73;;;10.00;99.90;;;;;;4989446;28;20209;-77
2021/11/14 10:03:51;;;;;;;26.58;18.45;;;10.00;99.90;;;;;;4989240;28;20276;-77
2021/11/14 10:06:23;;;;;;;28.30;18.42;;;10.10;99.90;;;;;;4990573;28;20244;-78
2021/11/14 10:08:50;;;;;;;25.50;18.33;;;10.20;99.90;;;;;;4991697;28;20260;-76
2021/11/14 10:11:18;;;;;;;22.52;17.35;;;10.60;99.90;;;;;;4991135;28;20224;-77
2021/11/14 10:13:48;;;;;;;21.88;16.98;;;10.60;99.90;;;;;;4991007;28;20197;-77
2021/11/14 10:16:18;;;;;;;22.00;17.55;;;10.50;99.90;;;;;;4991453;28;20197;-77
2021/11/14 10:18:54;;;;;;;24.83;17.13;;;10.70;99.90;;;;;;4991089;28;20229;-78
2021/11/14 10:21:28;;;;;;;21.90;16.80;;;10.60;99.90;;;;;;5009547;28;20204;-76
2021/11/14 10:23:55;;;;;;;23.00;17.30;;;10.90;99.90;;;;;;5012751;28;20213;-79
2021/11/14 10:26:26;;;;;;;21.15;16.92;;;10.90;97.70;;;;;;4996711;28;20221;-77
2021/11/14 10:28:53;;;;;;;21.30;16.52;;;10.90;96.90;;;;;;4994566;28;20239;-77
2021/11/14 10:31:22;;;;;;;22.40;17.40;;;10.90;96.30;;;;;;5008324;28;20209;-78
2021/11/14 10:33:52;;;;;;;21.98;15.95;;;10.80;96.90;;;;;;5014377;28;20610;-79
2021/11/14 10:36:20;;;;;;;21.27;15.88;;;10.80;98.00;;;;;;5014272;28;20444;-77
2021/11/14 10:38:48;;;;;;;18.95;15.32;;;10.90;97.60;;;;;;5013802;28;20380;-79
2021/11/14 10:41:17;;;;;;;24.35;15.93;;;10.80;97.10;;;;;;5009157;28;20192;-77
2021/11/14 10:43:48;;;;;;;19.42;15.75;;;10.90;97.00;;;;;;5015102;28;20280;-76
2021/11/14 10:46:20;;;;;;;21.38;16.23;;;10.90;96.90;;;;;;5001862;28;20229;-78
2021/11/14 10:48:48;;;;;;;22.35;16.60;;;10.80;96.50;;;;;;4993333;28;20290;-77
2021/11/14 10:54:10;;;;;;;21.50;15.15;;;10.90;97.10;;;;;;4998107;28;20205;-77
2021/11/14 10:56:38;;;;;;;19.55;15.18;;;11.00;96.60;;;;;;4993633;28;20300;-76
2021/11/14 10:59:06;;;;;;;20.80;15.07;;;11.00;96.60;;;;;;4999360;28;20225;-77
2021/11/14 11:01:34;;;;;;;20.95;16.83;;;10.90;96.50;;;;;;5003835;28;20204;-77
2021/11/14 11:04:00;;;;;;;20.92;16.00;;;10.80;96.00;;;;;;5013256;28;20604;-77
2021/11/14 11:06:29;;;;;;;22.67;17.02;;;10.80;97.00;;;;;;5032381;28;20247;-75
2021/11/14 11:08:59;;;;;;;20.23;15.60;;;10.90;97.00;;;;;;5020106;28;20228;-78
2021/11/14 11:11:27;;;;;;;21.67;16.70;;;11.00;96.30;;;;;;5013932;28;20211;-76
2021/11/14 11:13:55;;;;;;;20.67;16.00;;;11.00;95.90;;;;;;5005995;28;20211;-76
2021/11/14 11:16:24;;;;;;;21.05;16.02;;;10.90;95.20;;;;;;5013183;28;20642;-76
2021/11/14 11:18:59;;;;;;;21.52;16.05;;;10.90;95.40;;;;;;5011083;28;20227;-76
2021/11/14 11:21:31;;;;;;;25.88;18.30;;;10.90;95.80;;;;;;5015942;28;20218;-76
2021/11/14 11:24:10;;;;;;;23.92;16.55;;;10.70;95.40;;;;;;5004301;28;20254;-77
2021/11/14 11:26:38;;;;;;;22.77;16.80;;;10.60;96.60;;;;;;4995322;28;20220;-75
2021/11/14 11:29:16;;;;;;;25.38;18.58;;;10.60;96.20;;;;;;5010959;28;20232;-76
2021/11/14 11:31:43;;;;;;;22.08;17.30;;;10.60;96.90;;;;;;4999693;28;20203;-77
2021/11/14 11:34:10;;;;;;;22.77;15.95;;;10.70;97.00;;;;;;5003749;28;20234;-75
2021/11/14 11:37:08;;;;;;;25.42;17.65;;;10.50;96.70;;;;;;4990713;28;20219;-75
2021/11/14 11:39:35;;;;;;;24.38;17.13;;;10.40;96.70;;;;;;4971562;28;20235;-76
2021/11/14 11:42:03;;;;;;;22.77;16.55;;;10.50;96.20;;;;;;4990841;28;20204;-76
2021/11/14 11:44:31;;;;;;;24.75;17.50;;;10.60;95.90;;;;;;4994088;28;20216;-76
2021/11/14 11:47:05;;;;;;;24.73;17.58;;;10.60;95.80;;;;;;4977450;28;20317;-75
2021/11/14 11:49:33;;;;;;;23.75;16.40;;;10.60;95.30;;;;;;4974934;28;20264;-75
2021/11/14 11:52:07;;;;;;;24.02;17.13;;;10.50;95.20;;;;;;4992069;28;20301;-75
2021/11/14 11:54:36;;;;;;;21.52;17.05;;;10.50;95.10;;;;;;4997295;28;20320;-76
2021/11/14 11:57:06;;;;;;;25.95;17.17;;;10.40;95.70;;;;;;4990074;28;20276;-76
2021/11/14 11:59:36;;;;;;;22.45;16.73;;;10.40;95.30;;;;;;4993268;28;20221;-75
2021/11/14 12:02:06;;;;;;;23.27;16.90;;;10.40;95.70;;;;;;5012331;28;20201;-75
2021/11/14 12:04:37;;;;;;;25.20;16.15;;;10.50;95.80;;;;;;5006166;28;20229;-76
2021/11/14 12:07:07;;;;;;;27.55;18.33;;;10.50;94.30;;;;;;4994800;28;20244;-77
2021/11/14 12:09:39;;;;;;;28.33;17.00;;;10.40;95.10;;;;;;4992227;28;20247;-77
2021/11/14 12:12:19;;;;;;;27.00;18.20;;;10.30;94.80;;;;;;4974689;28;20239;-76
2021/11/14 12:14:48;;;;;;;28.73;18.58;;;10.30;95.00;;;;;;4977532;28;20211;-76
2021/11/14 12:17:25;;;;;;;26.55;17.75;;;10.30;94.90;;;;;;4993203;28;20247;-76
2021/11/14 12:19:52;;;;;;;31.50;20.23;;;10.40;95.20;;;;;;4989833;28;20227;-76
2021/11/14 12:22:22;;;;;;;30.85;19.15;;;10.40;95.00;;;;;;4973914;28;20233;-76
2021/11/14 12:24:52;;;;;;;27.92;18.65;;;10.40;93.30;;;;;;4979849;28;20236;-76
2021/11/14 12:27:27;;;;;;;29.25;19.40;;;10.30;94.00;;;;;;4991481;28;20212;-75
2021/11/14 12:29:59;;;;;;;30.40;18.48;;;10.40;94.20;;;;;;4984685;28;20204;-78
2021/11/14 12:32:40;;;;;;;27.85;18.52;;;10.30;94.70;;;;;;5000206;28;20231;-76
2021/11/14 12:35:13;;;;;;;32.85;19.35;;;10.50;94.70;;;;;;4997416;28;20287;-77
2021/11/14 12:37:47;;;;;;;32.70;19.95;;;10.50;94.10;;;;;;4997772;28;20277;-77
2021/11/14 12:40:22;;;;;;;32.92;19.88;;;10.40;94.00;;;;;;4997956;28;20200;-76
2021/11/14 12:42:49;;;;;;;31.95;18.90;;;10.40;93.60;;;;;;4999267;28;20189;-76
2021/11/14 12:45:16;;;;;;;30.80;19.05;;;10.50;94.60;;;;;;5000403;28;20228;-79
2021/11/14 12:47:46;;;;;;;30.33;18.55;;;10.40;94.80;;;;;;4998962;28;20229;-77
2021/11/14 12:50:16;;;;;;;30.52;19.80;;;10.50;95.20;;;;;;5015687;28;20208;-77
2021/11/14 12:52:49;;;;;;;27.45;19.13;;;10.50;95.00;;;;;;5003879;28;20196;-77
2021/11/14 12:55:20;;;;;;;26.73;18.85;;;10.40;94.70;;;;;;4995497;28;20215;-77
2021/11/14 12:57:52;;;;;;;31.80;20.30;;;10.30;95.10;;;;;;5016438;28;20631;-78
2021/11/14 13:00:32;;;;;;;28.63;19.23;;;10.30;96.00;;;;;;5007927;28;20208;-75
2021/11/14 13:02:59;;;;;;;35.30;21.48;;;10.30;96.30;;;;;;5009965;28;20216;-77
2021/11/14 13:05:29;;;;;;;28.40;18.70;;;10.20;95.30;;;;;;5015554;28;20224;-76
2021/11/14 13:08:00;;;;;;;31.35;20.25;;;10.20;95.80;;;;;;4998297;28;20223;-76
2021/11/14 13:10:31;;;;;;;33.05;20.75;;;10.30;95.40;;;;;;5019962;28;20207;-77
2021/11/14 13:13:00;;;;;;;32.03;19.60;;;10.20;95.80;;;;;;5000006;28;20200;-77
2021/11/14 13:15:27;;;;;;;33.17;20.13;;;10.20;95.50;;;;;;5004884;28;20207;-76
2021/11/14 13:17:56;;;;;;;30.13;19.42;;;10.10;95.90;;;;;;5004504;28;20243;-76
2021/11/14 13:20:25;;;;;;;33.70;19.60;;;10.20;96.30;;;;;;5004163;28;20200;-77
2021/11/14 13:22:55;;;;;;;32.35;19.67;;;10.20;95.30;;;;;;5012082;28;20211;-77
2021/11/14 13:25:26;;;;;;;33.15;20.20;;;10.20;95.20;;;;;;5012388;28;20298;-75
2021/11/14 13:27:54;;;;;;;31.35;19.25;;;10.20;94.60;;;;;;5014826;28;20220;-75
2021/11/14 13:30:23;;;;;;;31.70;19.73;;;10.20;95.00;;;;;;5003660;28;20294;-78
2021/11/14 13:32:51;;;;;;;31.17;19.60;;;10.30;95.30;;;;;;5004808;28;20204;-76
2021/11/14 13:35:19;;;;;;;33.22;20.90;;;10.30;95.00;;;;;;4977117;28;20300;-77
2021/11/14 13:37:48;;;;;;;28.33;18.60;;;10.30;94.70;;;;;;4982103;28;20335;-75
2021/11/14 13:40:17;;;;;;;31.63;19.15;;;10.30;94.70;;;;;;5005355;28;20208;-76
2021/11/14 13:42:47;;;;;;;30.30;20.20;;;10.30;94.50;;;;;;5002780;28;20273;-76
2021/11/14 13:45:17;;;;;;;29.88;19.45;;;10.30;94.20;;;;;;5005924;28;20216;-76
2021/11/14 13:47:46;;;;;;;30.63;18.58;;;10.40;94.20;;;;;;5002140;28;20283;-76
2021/11/14 13:50:28;;;;;;;30.20;18.88;;;10.40;93.70;;;;;;4998768;28;20204;-76
2021/11/14 13:52:57;;;;;;;29.45;17.85;;;10.40;93.30;;;;;;4989442;28;20232;-76
2021/11/14 13:55:26;;;;;;;29.70;18.15;;;10.40;93.10;;;;;;4975247;28;20625;-77
2021/11/14 13:57:55;;;;;;;27.40;16.02;;;10.40;93.20;;;;;;4976515;28;20311;-76
2021/11/14 14:00:24;;;;;;;27.73;19.05;;;10.40;93.20;;;;;;4974820;28;20264;-76
2021/11/14 14:02:52;;;;;;;29.23;17.77;;;10.40;93.10;;;;;;4975751;28;20216;-76
2021/11/14 14:05:23;;;;;;;26.77;17.95;;;10.40;93.20;;;;;;4975601;28;20323;-75
2021/11/14 14:07:50;;;;;;;29.65;18.88;;;10.40;92.90;;;;;;4976120;28;20636;-76
2021/11/14 14:10:19;;;;;;;28.42;18.23;;;10.50;92.90;;;;;;4975663;28;20205;-76
2021/11/14 14:12:49;;;;;;;29.15;17.15;;;10.50;93.10;;;;;;4975597;28;20212;-77
2021/11/14 14:15:20;;;;;;;28.55;17.73;;;10.50;92.60;;;;;;4976145;28;20231;-75
2021/11/14 14:17:51;;;;;;;24.55;17.42;;;10.50;92.70;;;;;;4975764;28;20261;-76
2021/11/14 14:20:18;;;;;;;25.58;16.65;;;10.50;92.90;;;;;;4975936;28;20303;-77
2021/11/14 14:22:47;;;;;;;26.50;17.70;;;10.50;92.60;;;;;;4976007;28;20638;-77
2021/11/14 14:25:16;;;;;;;27.15;17.33;;;10.60;92.50;;;;;;4975505;28;20656;-76
2021/11/14 14:27:47;;;;;;;27.55;16.85;;;10.60;92.10;;;;;;4977015;28;20562;-76
2021/11/14 14:30:18;;;;;;;24.70;16.80;;;10.60;91.40;;;;;;4977202;28;20217;-75
2021/11/14 14:32:50;;;;;;;24.60;17.73;;;10.40;91.50;;;;;;4975617;28;20264;-76
2021/11/14 14:35:19;;;;;;;24.83;16.50;;;10.40;92.10;;;;;;4975522;28;20240;-76
2021/11/14 14:37:48;;;;;;;23.30;16.45;;;10.40;92.10;;;;;;4978847;28;20225;-75
2021/11/14 14:40:17;;;;;;;23.60;16.10;;;10.40;92.40;;;;;;4984299;28;20292;-76
2021/11/14 14:42:52;;;;;;;27.25;16.83;;;10.50;92.30;;;;;;4984875;28;20213;-76
2021/11/14 14:45:33;;;;;;;27.08;16.00;;;10.50;91.90;;;;;;4984302;28;20208;-76
2021/11/14 14:48:03;;;;;;;24.90;16.55;;;10.50;91.70;;;;;;4976290;28;20240;-76
2021/11/14 14:50:31;;;;;;;24.92;16.85;;;10.50;91.30;;;;;;4974439;28;20205;-75
2021/11/14 14:52:59;;;;;;;27.80;17.05;;;10.40;91.70;;;;;;4974717;28;20704;-75
2021/11/14 14:55:26;;;;;;;28.75;16.70;;;10.30;92.00;;;;;;4974691;28;20317;-75
2021/11/14 14:57:54;;;;;;;23.92;16.77;;;10.20;92.00;;;;;;4974733;28;20225;-76
2021/11/14 15:00:34;;;;;;;22.70;17.13;;;10.20;92.20;;;;;;4975702;28;20247;-75
2021/11/14 15:03:02;;;;;;;24.45;17.50;;;10.20;92.80;;;;;;4979581;28;20223;-77
2021/11/14 15:05:29;;;;;;;28.48;17.02;;;10.20;92.90;;;;;;4975464;28;20208;-75
2021/11/14 15:07:59;;;;;;;24.75;16.55;;;10.20;92.80;;;;;;4974234;28;20237;-75
2021/11/14 15:10:30;;;;;;;23.02;16.13;;;10.20;92.80;;;;;;4974600;28;20232;-75
2021/11/14 15:12:59;;;;;;;23.85;16.40;;;10.20;92.70;;;;;;4974570;28;20209;-76
2021/11/14 15:15:27;;;;;;;25.95;15.73;;;10.20;92.80;;;;;;4974234;28;20219;-76
2021/11/14 15:17:57;;;;;;;23.63;15.50;;;10.10;93.00;;;;;;4973500;28;20729;-76